createdAt,value
2022-11-21T00:00:25.366Z,25.29
2022-11-21T00:01:28.777Z,27.35
2022-11-21T00:02:30.767Z,24.60
2022-11-21T00:03:38.079Z,23.11
2022-11-21T00:04:40.033Z,25.04
2022-11-21T00:08:04.482Z,23.40
2022-11-21T00:09:06.597Z,23.01
2022-11-21T00:10:09.321Z,25.48
2022-11-21T00:11:11.703Z,23.17
2022-11-21T00:12:15.813Z,25.71
2022-11-21T00:13:19.940Z,24.00
2022-11-21T00:14:22.032Z,25.50
2022-11-21T00:15:26.187Z,24.21
2022-11-21T00:16:29.107Z,24.61
2022-11-21T00:17:31.213Z,26.05
2022-11-21T00:18:34.314Z,22.89
2022-11-21T00:19:38.498Z,23.54
2022-11-21T00:20:41.782Z,21.78
2022-11-21T00:21:43.709Z,24.35
2022-11-21T00:22:47.070Z,25.23
2022-11-21T00:23:48.970Z,26.36
2022-11-21T00:24:54.158Z,24.56
2022-11-21T00:25:54.774Z,24.92
2022-11-21T00:26:56.891Z,25.00
2022-11-21T00:27:59.358Z,24.04
2022-11-21T00:29:01.236Z,26.01
2022-11-21T00:30:05.611Z,24.71
2022-11-21T00:31:09.063Z,25.85
2022-11-21T00:32:11.883Z,25.64
2022-11-21T00:33:14.025Z,24.44
2022-11-21T00:34:15.883Z,26.12
2022-11-21T00:35:17.861Z,27.37
2022-11-21T00:36:20.527Z,27.65
2022-11-21T00:37:22.497Z,26.29
2022-11-21T00:38:26.649Z,27.27
2022-11-21T00:39:28.552Z,28.22
2022-11-21T00:40:30.560Z,28.44
2022-11-21T00:41:32.807Z,24.76
2022-11-21T00:42:34.714Z,25.88
2022-11-21T00:43:36.585Z,27.55
2022-11-21T00:44:38.437Z,27.67
2022-11-21T00:45:40.328Z,29.77
2022-11-21T00:46:44.214Z,27.82
2022-11-21T00:47:46.214Z,28.65
2022-11-21T00:48:48.167Z,28.49
2022-11-21T00:49:50.051Z,28.73
2022-11-21T00:50:52.242Z,27.53
2022-11-21T00:51:54.113Z,27.91
2022-11-21T00:52:56.984Z,27.83
2022-11-21T00:53:58.989Z,27.16
2022-11-21T00:55:01.373Z,29.78
2022-11-21T00:56:03.758Z,30.43
2022-11-21T00:57:05.904Z,31.93
2022-11-21T00:58:07.764Z,28.30
2022-11-21T00:59:09.735Z,29.69
2022-11-21T01:00:14.772Z,29.59
2022-11-21T01:01:16.737Z,32.14
2022-11-21T01:02:19.033Z,30.97
2022-11-21T01:03:21.003Z,36.13
2022-11-21T01:04:23.250Z,34.38
2022-11-21T01:05:25.137Z,33.94
2022-11-21T01:06:27.116Z,34.69
2022-11-21T01:07:29.128Z,33.77
2022-11-21T01:08:31.348Z,37.33
2022-11-21T01:09:36.671Z,32.48
2022-11-21T01:10:38.887Z,36.43
2022-11-21T01:11:40.862Z,39.20
2022-11-21T01:12:42.723Z,35.78
2022-11-21T01:13:45.662Z,39.74
2022-11-21T01:14:47.552Z,34.68
2022-11-21T01:15:49.392Z,34.93
2022-11-21T01:16:51.345Z,38.31
2022-11-21T01:17:53.215Z,36.17
2022-11-21T01:18:56.543Z,37.33
2022-11-21T01:19:58.693Z,32.72
2022-11-21T01:21:03.316Z,36.61
2022-11-21T01:22:05.606Z,35.12
2022-11-21T01:23:07.571Z,37.47
2022-11-21T01:24:11.690Z,34.71
2022-11-21T01:25:15.825Z,37.61
2022-11-21T01:26:22.610Z,34.52
2022-11-21T01:27:24.628Z,40.68
2022-11-21T01:28:26.686Z,34.03
2022-11-21T01:29:28.551Z,31.93
2022-11-21T01:30:30.522Z,44.82
2022-11-21T01:31:34.662Z,33.35
2022-11-21T01:32:36.546Z,36.88
2022-11-21T01:33:41.612Z,32.56
2022-11-21T01:34:43.656Z,31.76
2022-11-21T01:35:47.110Z,32.89
2022-11-21T01:36:49.107Z,37.89
2022-11-21T01:37:51.399Z,30.99
2022-11-21T01:38:55.185Z,33.05
2022-11-21T01:39:57.115Z,32.83
2022-11-21T01:40:59.227Z,37.30
2022-11-21T01:42:01.081Z,29.95
2022-11-21T01:43:12.769Z,34.96
2022-11-21T01:45:49.963Z,31.59
2022-11-21T01:46:53.095Z,34.15
2022-11-21T01:47:55.386Z,34.80
2022-11-21T01:49:13.521Z,33.09
2022-11-21T01:50:17.461Z,31.10
2022-11-21T01:51:35.087Z,34.39
2022-11-21T01:52:38.675Z,32.40
2022-11-21T01:53:44.352Z,31.10
2022-11-21T01:54:52.723Z,32.86
2022-11-21T01:55:54.969Z,35.15
2022-11-21T01:57:09.803Z,40.09
2022-11-21T01:58:12.907Z,35.52
2022-11-21T01:59:18.904Z,38.28
2022-11-21T02:00:25.503Z,39.96
2022-11-21T02:01:28.912Z,32.18
2022-11-21T02:02:34.722Z,36.30
2022-11-21T02:03:37.944Z,37.12
2022-11-21T02:04:42.838Z,32.50
2022-11-21T02:05:45.265Z,34.95
2022-11-21T02:06:48.831Z,37.83
2022-11-21T02:07:53.836Z,37.14
2022-11-21T02:08:59.476Z,35.94
2022-11-21T02:10:03.736Z,34.51
2022-11-21T02:11:09.406Z,34.29
2022-11-21T02:12:17.805Z,35.32
2022-11-21T02:13:20.332Z,38.77
2022-11-21T02:14:22.800Z,34.68
2022-11-21T02:15:27.788Z,39.87
2022-11-21T02:16:30.498Z,35.87
2022-11-21T02:17:32.943Z,39.85
2022-11-21T02:18:35.553Z,34.87
2022-11-21T02:19:53.629Z,39.75
2022-11-21T02:21:17.313Z,37.27
2022-11-21T02:22:28.947Z,38.90
2022-11-21T02:23:37.601Z,39.81
2022-11-21T02:24:46.048Z,45.33
2022-11-21T02:25:48.398Z,40.03
2022-11-21T02:26:50.490Z,39.37
2022-11-21T02:27:56.822Z,37.53
2022-11-21T02:28:59.151Z,37.86
2022-11-21T02:30:04.600Z,40.38
2022-11-21T02:31:06.499Z,38.28
2022-11-21T02:32:08.352Z,43.25
2022-11-21T02:33:11.366Z,38.57
2022-11-21T02:34:13.599Z,37.34
2022-11-21T02:35:19.117Z,36.37
2022-11-21T02:36:37.330Z,41.31
2022-11-21T02:37:40.129Z,39.66
2022-11-21T02:38:41.982Z,38.67
2022-11-21T02:39:46.780Z,37.95
2022-11-21T02:40:59.130Z,36.51
2022-11-21T02:44:30.929Z,39.24
2022-11-21T02:45:36.581Z,39.39
2022-11-21T02:46:50.932Z,37.16
2022-11-21T02:48:02.227Z,36.71
2022-11-21T02:49:02.613Z,40.22
2022-11-21T02:50:24.968Z,38.02
2022-11-21T02:51:28.920Z,37.18
2022-11-21T02:52:30.859Z,38.88
2022-11-21T02:53:32.710Z,42.23
2022-11-21T02:54:34.568Z,40.55
2022-11-21T02:55:36.819Z,42.32
2022-11-21T02:56:38.792Z,36.49
2022-11-21T02:57:42.052Z,41.09
2022-11-21T02:58:44.119Z,40.69
2022-11-21T02:59:45.987Z,38.65
2022-11-21T03:00:48.114Z,36.79
2022-11-21T03:01:50.743Z,38.27
2022-11-21T03:02:52.615Z,39.91
2022-11-21T03:03:54.496Z,39.02
2022-11-21T03:04:56.383Z,38.52
2022-11-21T03:05:58.388Z,39.85
2022-11-21T03:07:00.394Z,40.49
2022-11-21T03:08:03.544Z,40.83
2022-11-21T03:09:05.415Z,35.71
2022-11-21T03:10:08.971Z,37.06
2022-11-21T03:11:10.937Z,34.63
2022-11-21T03:12:13.595Z,37.07
2022-11-21T03:13:15.482Z,38.42
2022-11-21T03:14:17.462Z,32.80
2022-11-21T03:15:19.331Z,35.55
2022-11-21T03:16:21.375Z,35.19
2022-11-21T03:17:23.267Z,34.47
2022-11-21T03:18:25.159Z,34.39
2022-11-21T03:19:27.016Z,37.23
2022-11-21T03:20:30.754Z,34.61
2022-11-21T03:21:32.635Z,33.48
2022-11-21T03:22:34.761Z,29.79
2022-11-21T03:23:37.175Z,33.82
2022-11-21T03:24:39.181Z,34.75
2022-11-21T03:25:41.158Z,38.12
2022-11-21T03:26:43.157Z,30.95
2022-11-21T03:27:45.438Z,31.11
2022-11-21T03:28:47.321Z,33.97
2022-11-21T03:29:49.179Z,33.22
2022-11-21T03:30:51.152Z,33.01
2022-11-21T03:31:53.006Z,39.27
2022-11-21T03:32:55.968Z,32.41
2022-11-21T03:33:58.090Z,31.02
2022-11-21T03:35:00.062Z,36.69
2022-11-21T03:36:02.834Z,31.09
2022-11-21T03:37:04.819Z,34.45
2022-11-21T03:38:06.695Z,34.64
2022-11-21T03:39:10.342Z,33.45
2022-11-21T03:40:13.162Z,31.89
2022-11-21T03:41:15.018Z,32.66
2022-11-21T03:42:16.872Z,29.55
2022-11-21T03:43:18.798Z,33.21
2022-11-21T03:44:20.708Z,34.26
2022-11-21T03:45:22.598Z,33.39
2022-11-21T03:46:25.836Z,33.91
2022-11-21T03:47:27.708Z,31.19
2022-11-21T03:48:29.586Z,28.79
2022-11-21T03:49:31.559Z,33.10
2022-11-21T03:50:33.829Z,32.91
2022-11-21T03:51:36.795Z,32.61
2022-11-21T03:52:38.661Z,33.47
2022-11-21T03:53:41.099Z,34.58
2022-11-21T03:54:43.015Z,32.53
2022-11-21T03:55:44.885Z,30.45
2022-11-21T03:56:46.929Z,31.91
2022-11-21T03:57:48.881Z,36.40
2022-11-21T03:58:50.761Z,34.57
2022-11-21T03:59:52.633Z,34.86
2022-11-21T04:00:54.587Z,33.11
2022-11-21T04:01:56.513Z,30.04
2022-11-21T04:02:58.517Z,34.64
2022-11-21T04:04:00.421Z,33.33
2022-11-21T04:05:02.547Z,35.31
2022-11-21T04:06:04.769Z,37.48
2022-11-21T04:07:06.824Z,39.28
2022-11-21T04:08:09.953Z,36.46
2022-11-21T04:09:11.852Z,48.06
2022-11-21T04:10:15.517Z,34.33
2022-11-21T04:11:17.926Z,41.89
2022-11-21T04:12:19.903Z,37.23
2022-11-21T04:13:22.904Z,37.21
2022-11-21T04:14:24.800Z,36.92
2022-11-21T04:15:26.654Z,36.01
2022-11-21T04:16:28.643Z,39.23
2022-11-21T04:17:30.593Z,38.87
2022-11-21T04:18:35.365Z,45.43
2022-11-21T04:19:37.280Z,38.72
2022-11-21T04:20:40.612Z,36.79
2022-11-21T04:21:42.549Z,39.55
2022-11-21T04:22:44.415Z,39.27
2022-11-21T04:23:46.282Z,37.11
2022-11-21T04:24:48.254Z,38.71
2022-11-21T04:25:50.564Z,38.13
2022-11-21T04:26:55.764Z,38.69
2022-11-21T06:04:22.425Z,49.36
2022-11-21T06:05:24.292Z,55.09
2022-11-21T06:06:26.267Z,53.23
2022-11-21T06:07:28.395Z,56.73
2022-11-21T06:08:33.601Z,57.01
2022-11-21T06:09:35.493Z,50.33
2022-11-21T06:10:37.457Z,56.38
2022-11-21T06:11:39.313Z,54.54
2022-11-21T06:12:41.289Z,52.01
2022-11-21T06:13:43.869Z,49.57
2022-11-21T06:14:45.742Z,50.79
2022-11-21T06:15:51.513Z,46.05
2022-11-21T06:16:53.610Z,50.53
2022-11-21T06:17:55.591Z,46.49
2022-11-21T06:18:58.794Z,43.52
2022-11-21T06:20:01.775Z,45.88
2022-11-21T06:21:06.740Z,44.43
2022-11-21T06:22:08.897Z,42.41
2022-11-21T06:23:11.824Z,44.36
2022-11-21T06:24:17.008Z,42.85
2022-11-21T06:25:17.590Z,39.01
2022-11-21T06:26:22.225Z,43.57
2022-11-21T06:27:24.118Z,42.59
2022-11-21T06:28:27.267Z,43.79
2022-11-21T06:29:29.169Z,36.59
2022-11-21T06:30:31.131Z,36.11
2022-11-21T06:31:33.020Z,39.61
2022-11-21T06:32:38.398Z,36.16
2022-11-21T06:33:41.801Z,38.66
2022-11-21T06:34:43.750Z,35.89
2022-11-21T06:35:45.637Z,35.65
2022-11-21T06:36:48.631Z,32.85
2022-11-21T06:37:53.545Z,34.96
2022-11-21T06:38:55.876Z,33.57
2022-11-21T06:39:58.756Z,37.06
2022-11-21T06:41:05.805Z,38.14
2022-11-21T06:42:07.934Z,35.13
2022-11-21T06:43:09.911Z,36.31
2022-11-21T06:44:11.785Z,31.58
2022-11-21T06:45:13.954Z,37.61
2022-11-21T06:46:16.765Z,36.13
2022-11-21T06:47:18.639Z,32.39
2022-11-21T06:48:20.488Z,41.75
2022-11-21T06:49:22.384Z,35.50
2022-11-21T06:50:25.151Z,37.29
2022-11-21T06:51:27.017Z,39.22
2022-11-21T06:52:36.586Z,40.38
2022-11-21T06:53:38.790Z,38.31
2022-11-21T06:54:40.745Z,39.37
2022-11-21T06:55:42.616Z,38.93
2022-11-21T06:56:44.805Z,32.54
2022-11-21T06:57:46.677Z,34.62
2022-11-21T06:58:48.525Z,35.78
2022-11-21T06:59:50.383Z,40.72
2022-11-21T07:00:52.469Z,31.97
2022-11-21T07:01:54.435Z,38.51
2022-11-21T07:03:03.291Z,36.55
2022-11-21T07:04:04.422Z,36.69
2022-11-21T07:05:06.636Z,37.55
2022-11-21T07:06:08.709Z,42.05
2022-11-21T07:07:10.759Z,35.75
2022-11-21T07:08:13.550Z,37.77
2022-11-21T07:09:33.668Z,37.01
2022-11-21T07:10:20.460Z,33.06
2022-11-21T07:11:24.983Z,35.91
2022-11-21T07:12:26.129Z,37.14
2022-11-21T07:13:28.961Z,34.85
2022-11-21T07:14:30.866Z,36.68
2022-11-21T07:15:32.717Z,34.23
2022-11-21T07:16:34.807Z,35.86
2022-11-21T07:17:37.876Z,32.53
2022-11-21T07:18:40.191Z,38.78
2022-11-21T07:19:42.086Z,37.33
2022-11-21T07:20:44.524Z,34.23
2022-11-21T07:21:46.406Z,35.75
2022-11-21T07:22:48.285Z,38.26
2022-11-21T07:23:50.645Z,35.26
2022-11-21T07:24:52.530Z,37.81
2022-11-21T07:25:54.955Z,33.25
2022-11-21T07:26:59.073Z,32.53
2022-11-21T07:28:02.651Z,33.91
2022-11-21T07:29:04.533Z,35.16
2022-11-21T07:30:08.301Z,35.06
2022-11-21T07:31:13.910Z,33.73
2022-11-21T07:32:14.760Z,31.49
2022-11-21T07:33:16.643Z,30.00
2022-11-21T07:34:18.510Z,31.53
2022-11-21T07:35:20.401Z,29.80
2022-11-21T07:36:22.479Z,28.85
2022-11-21T07:37:24.373Z,27.64
2022-11-21T07:38:26.464Z,28.05
2022-11-21T07:39:28.793Z,27.26
2022-11-21T07:40:31.137Z,27.63
2022-11-21T07:41:34.097Z,27.07
2022-11-21T07:42:36.012Z,27.91
2022-11-21T07:43:37.920Z,28.64
2022-11-21T07:44:39.870Z,32.23
2022-11-21T07:45:41.838Z,30.07
2022-11-21T07:46:43.889Z,31.44
2022-11-21T07:47:45.998Z,31.47
2022-11-21T07:48:50.099Z,32.97
2022-11-21T07:49:51.993Z,31.82
2022-11-21T07:50:54.147Z,27.89
2022-11-21T07:51:56.030Z,29.61
2022-11-21T07:54:10.374Z,31.32
2022-11-21T07:55:12.317Z,29.12
2022-11-21T07:56:15.506Z,27.70
2022-11-21T07:57:17.498Z,28.45
2022-11-21T07:58:19.851Z,27.72
2022-11-21T07:59:21.759Z,26.23
2022-11-21T08:00:24.181Z,28.79
2022-11-21T08:01:26.359Z,29.03
2022-11-21T08:02:29.210Z,29.17
2022-11-21T08:03:34.431Z,32.71
2022-11-21T08:04:37.600Z,30.78
2022-11-21T08:05:42.646Z,30.73
2022-11-21T08:06:45.048Z,33.66
2022-11-21T08:07:47.273Z,30.09
2022-11-21T08:08:53.400Z,30.91
2022-11-21T08:09:55.295Z,32.06
2022-11-21T08:10:57.412Z,33.17
2022-11-21T08:11:59.261Z,30.29
2022-11-21T08:13:01.151Z,32.59
2022-11-21T08:14:03.566Z,32.69
2022-11-21T08:15:06.880Z,30.67
2022-11-21T08:16:09.879Z,32.42
2022-11-21T08:17:11.750Z,34.27
2022-11-21T08:18:16.871Z,32.76
2022-11-21T08:19:18.806Z,33.02
2022-11-21T08:20:20.876Z,30.92
2022-11-21T08:21:22.788Z,32.10
2022-11-21T08:22:24.948Z,32.85
2022-11-21T08:23:26.919Z,29.49
2022-11-21T08:24:28.768Z,30.29
2022-11-21T08:25:32.015Z,31.88
2022-11-21T08:26:34.280Z,32.53
2022-11-21T08:27:37.916Z,34.19
2022-11-21T08:28:39.894Z,29.94
2022-11-21T08:29:41.962Z,34.88
2022-11-21T08:30:44.234Z,34.15
2022-11-21T08:31:46.212Z,36.05
2022-11-21T08:32:48.089Z,35.24
2022-11-21T08:33:49.967Z,31.74
2022-11-21T08:34:51.917Z,40.43
2022-11-21T08:35:53.784Z,35.54
2022-11-21T08:36:56.251Z,40.93
2022-11-21T08:38:00.088Z,37.52
2022-11-21T08:39:04.155Z,37.89
2022-11-21T08:40:07.992Z,37.67
2022-11-21T08:41:17.480Z,34.79
2022-11-21T08:42:17.075Z,35.08
2022-11-21T08:43:18.937Z,34.96
2022-11-21T08:44:20.831Z,40.29
2022-11-21T08:45:22.687Z,38.81
2022-11-21T08:46:25.300Z,36.75
2022-11-21T08:47:27.199Z,39.62
2022-11-21T08:48:29.069Z,33.93
2022-11-21T08:49:30.940Z,34.74
2022-11-21T08:50:33.009Z,33.85
2022-11-21T08:51:36.226Z,28.81
2022-11-21T08:52:38.134Z,29.81
2022-11-21T08:53:40.156Z,29.05
2022-11-21T08:54:43.469Z,37.36
2022-11-21T08:55:45.447Z,35.51
2022-11-21T08:56:47.890Z,34.23
2022-11-21T08:57:49.896Z,34.16
2022-11-21T08:58:51.983Z,40.34
2022-11-21T08:59:53.860Z,36.73
2022-11-21T09:00:55.946Z,33.38
2022-11-21T09:01:57.908Z,35.70
2022-11-21T09:03:04.937Z,33.31
2022-11-21T09:04:08.954Z,38.01
2022-11-21T09:05:13.106Z,37.47
2022-11-21T09:06:15.407Z,36.93
2022-11-21T09:07:17.452Z,32.17
2022-11-21T09:08:19.372Z,33.73
2022-11-21T09:09:25.317Z,34.98
2022-11-21T09:10:26.610Z,36.19
2022-11-21T09:11:28.617Z,39.67
2022-11-21T09:12:30.899Z,43.02
2022-11-21T09:13:34.294Z,37.41
2022-11-21T09:14:36.172Z,43.33
2022-11-21T09:15:38.148Z,41.69
2022-11-21T09:16:40.136Z,41.15
2022-11-21T09:17:42.108Z,39.41
2022-11-21T09:18:43.974Z,39.43
2022-11-21T09:19:47.036Z,33.95
2022-11-21T09:20:49.173Z,31.21
2022-11-21T09:21:52.130Z,34.60
2022-11-21T09:22:54.000Z,36.94
2022-11-21T09:23:55.875Z,31.64
2022-11-21T09:24:57.735Z,32.29
2022-11-21T09:26:01.356Z,33.47
2022-11-21T09:27:03.265Z,31.01
2022-11-21T09:28:07.259Z,33.94
2022-11-21T09:29:09.340Z,35.71
2022-11-21T09:30:12.117Z,36.51
2022-11-21T09:31:14.094Z,30.39
2022-11-21T09:32:15.986Z,35.18
2022-11-21T09:33:17.845Z,38.13
2022-11-21T09:34:19.722Z,32.43
2022-11-21T09:35:21.593Z,37.61
2022-11-21T09:36:23.577Z,33.87
2022-11-21T09:37:25.457Z,33.67
2022-11-21T09:38:27.704Z,35.81
2022-11-21T09:39:29.850Z,33.42
2022-11-21T09:40:34.418Z,30.50
2022-11-21T09:41:45.926Z,30.98
2022-11-21T09:44:29.162Z,31.38
2022-11-21T09:46:41.937Z,31.22
2022-11-21T09:47:47.607Z,33.23
2022-11-21T09:51:21.837Z,37.57
2022-11-21T09:52:27.492Z,31.47
2022-11-21T09:53:33.378Z,35.02
2022-11-21T09:54:39.148Z,31.75
2022-11-21T09:55:51.053Z,33.54
2022-11-21T09:56:55.586Z,35.92
2022-11-21T09:58:03.969Z,31.96
2022-11-21T09:59:15.960Z,33.54
2022-11-21T10:00:21.834Z,46.70
2022-11-21T10:01:23.790Z,41.00
2022-11-21T10:02:25.720Z,41.24
2022-11-21T10:03:31.444Z,43.38
2022-11-21T10:04:33.473Z,40.54
2022-11-21T10:05:44.739Z,35.44
2022-11-21T10:07:55.647Z,38.22
2022-11-21T10:09:09.845Z,42.22
2022-11-21T10:10:25.654Z,37.24
2022-11-21T10:11:49.033Z,38.72
2022-11-21T10:13:03.712Z,40.64
2022-11-21T10:14:32.630Z,39.13
2022-11-21T10:15:44.373Z,44.92
2022-11-21T10:16:53.108Z,42.96
2022-11-21T10:18:15.739Z,45.46
2022-11-21T10:19:39.328Z,49.64
2022-11-21T10:20:51.446Z,43.73
2022-11-21T10:22:08.054Z,44.88
2022-11-21T10:23:26.036Z,41.62
2022-11-21T10:24:50.003Z,43.74
2022-11-21T10:26:01.150Z,42.08
2022-11-21T10:27:09.323Z,39.69
2022-11-21T10:28:18.542Z,43.04
2022-11-21T10:29:32.913Z,41.93
2022-11-21T14:48:30.190Z,11.62
2022-11-21T14:49:32.325Z,10.56
2022-11-21T14:50:34.634Z,13.61
2022-11-21T14:51:37.086Z,15.82
2022-11-21T14:52:41.501Z,13.21
2022-11-21T14:53:47.113Z,14.03
2022-11-21T14:56:02.028Z,12.31
2022-11-21T14:57:08.401Z,15.26
2022-11-21T15:03:20.777Z,12.99
2022-11-21T15:04:29.171Z,11.51
2022-11-21T15:06:00.615Z,9.74
2022-11-21T15:06:43.301Z,12.48
2022-11-21T15:09:45.971Z,9.84
2022-11-21T15:10:59.515Z,13.06
2022-11-21T15:14:27.821Z,11.21
2022-11-21T15:15:36.107Z,10.46
2022-11-21T15:16:38.489Z,9.63
2022-11-21T15:18:03.469Z,10.91
2022-11-21T15:18:45.065Z,10.24
2022-11-21T15:19:50.668Z,13.50
2022-11-21T15:20:56.264Z,12.88
2022-11-21T15:22:01.264Z,11.11
2022-11-21T15:23:03.213Z,9.12
2022-11-21T15:24:31.348Z,10.16
2022-11-21T15:25:47.307Z,10.42
2022-11-21T15:26:49.748Z,9.97
2022-11-21T15:28:01.168Z,11.08
2022-11-21T15:29:06.891Z,10.61
2022-11-21T15:30:13.560Z,10.61
2022-11-21T15:31:20.270Z,8.87
2022-11-21T15:32:22.258Z,11.20
2022-11-21T15:33:24.148Z,8.51
2022-11-21T15:34:41.664Z,9.55
2022-11-21T15:35:54.034Z,11.06
2022-11-21T15:37:17.073Z,11.93
2022-11-21T15:38:27.226Z,9.47
2022-11-21T15:39:29.957Z,11.21
2022-11-21T15:40:32.019Z,9.14
2022-11-21T15:41:35.995Z,10.85
2022-11-21T15:42:38.546Z,10.21
2022-11-21T15:44:04.281Z,13.32
2022-11-21T15:45:21.783Z,10.17
2022-11-21T15:46:26.907Z,9.53
2022-11-21T15:47:29.318Z,11.39
2022-11-21T15:48:31.243Z,11.28
2022-11-21T15:49:33.691Z,9.65
2022-11-21T15:50:36.139Z,9.37
2022-11-21T15:52:06.118Z,9.79
2022-11-21T15:52:49.753Z,10.56
2022-11-21T15:53:52.415Z,9.54
2022-11-21T15:54:54.442Z,9.51
2022-11-21T15:55:56.316Z,9.88
2022-11-21T15:56:58.493Z,9.49
2022-11-21T15:58:00.669Z,9.35
2022-11-21T15:59:02.632Z,9.05
2022-11-21T16:00:05.813Z,10.51
2022-11-21T16:01:18.971Z,9.77
2022-11-21T16:02:20.938Z,9.51
2022-11-21T16:03:22.794Z,10.38
2022-11-21T16:04:26.103Z,9.83
2022-11-21T16:05:28.485Z,9.86
2022-11-21T16:06:31.120Z,8.54
2022-11-21T16:07:33.036Z,10.12
2022-11-21T16:08:35.372Z,10.09
2022-11-21T16:09:38.374Z,9.64
2022-11-21T16:10:40.461Z,8.30
2022-11-21T16:11:42.522Z,9.69
2022-11-21T16:12:44.497Z,7.37
2022-11-21T16:13:50.621Z,6.43
2022-11-21T16:14:53.393Z,9.88
2022-11-21T16:15:55.360Z,8.22
2022-11-21T16:16:57.430Z,8.48
2022-11-21T16:17:59.407Z,8.31
2022-11-21T16:19:01.298Z,8.76
2022-11-21T16:20:04.567Z,7.55
2022-11-21T16:21:08.373Z,7.24
2022-11-21T16:22:10.258Z,6.59
2022-11-21T16:23:13.097Z,8.09
2022-11-21T16:24:15.032Z,9.52
2022-11-21T16:25:17.233Z,8.31
2022-11-21T16:26:19.312Z,7.69
2022-11-21T16:27:21.202Z,7.81
2022-11-21T16:28:24.152Z,8.21
2022-11-21T16:29:26.410Z,9.03
2022-11-21T16:30:29.249Z,9.58
2022-11-21T16:31:31.957Z,9.43
2022-11-21T16:32:33.924Z,9.13
2022-11-21T16:33:38.464Z,8.23
2022-11-21T16:34:40.363Z,10.71
2022-11-21T16:35:42.769Z,7.39
2022-11-21T16:36:44.959Z,7.47
2022-11-21T16:37:47.225Z,8.32
2022-11-21T16:38:50.283Z,7.45
2022-11-21T16:39:52.255Z,7.89
2022-11-21T16:41:00.702Z,6.87
2022-11-21T16:42:02.711Z,7.65
2022-11-21T16:43:12.532Z,8.79
2022-11-21T16:44:15.832Z,6.48
2022-11-21T16:45:17.702Z,8.63
2022-11-21T16:46:22.645Z,7.65
2022-11-21T16:47:24.582Z,9.39
2022-11-21T16:48:28.443Z,9.34
2022-11-21T16:49:30.953Z,7.47
2022-11-21T16:50:33.679Z,8.53
2022-11-21T16:51:35.705Z,10.71
2022-11-21T16:52:37.543Z,7.21
2022-11-21T16:53:41.099Z,8.13
2022-11-21T16:54:42.993Z,8.73
2022-11-21T16:55:44.833Z,7.30
2022-11-21T16:56:47.103Z,8.25
2022-11-21T16:57:49.653Z,9.00
2022-11-21T16:58:51.913Z,7.67
2022-11-21T16:59:53.795Z,9.72
2022-11-21T17:00:55.939Z,8.31
2022-11-21T17:01:59.033Z,8.73
2022-11-21T17:03:01.498Z,7.97
2022-11-21T17:04:03.502Z,8.22
2022-11-21T17:05:06.566Z,9.51
2022-11-21T17:06:11.963Z,10.27
2022-11-21T17:07:13.995Z,10.29
2022-11-21T17:08:16.085Z,7.89
2022-11-21T17:09:18.847Z,8.63
2022-11-21T17:10:20.850Z,8.01
2022-11-21T17:11:25.524Z,8.22
2022-11-21T17:12:27.428Z,7.76
2022-11-21T17:13:29.655Z,8.78
2022-11-21T17:14:31.724Z,8.41
2022-11-21T17:15:33.793Z,9.17
2022-11-21T17:16:36.703Z,7.97
2022-11-21T17:17:39.518Z,9.35
2022-11-21T17:18:42.213Z,10.37
2022-11-21T17:19:45.574Z,8.31
2022-11-21T17:20:47.634Z,8.24
2022-11-21T17:21:49.502Z,8.60
2022-11-21T17:22:51.379Z,8.96
2022-11-21T17:23:54.030Z,7.72
2022-11-21T17:24:55.969Z,8.61
2022-11-21T17:26:03.810Z,8.49
2022-11-21T17:27:05.723Z,9.61
2022-11-21T17:28:07.593Z,9.65
2022-11-21T17:29:09.540Z,8.44
2022-11-21T17:30:13.265Z,10.01
2022-11-21T17:31:15.413Z,9.30
2022-11-21T17:32:18.197Z,7.69
2022-11-21T17:33:20.172Z,8.65
2022-11-21T17:34:22.697Z,10.21
2022-11-21T17:35:24.837Z,7.01
2022-11-21T17:36:28.979Z,7.47
2022-11-21T17:37:30.977Z,9.31
2022-11-21T17:38:33.894Z,7.13
2022-11-21T17:39:36.550Z,7.34
2022-11-21T17:40:38.702Z,9.75
2022-11-21T17:41:40.676Z,7.50
2022-11-21T17:42:42.545Z,8.62
2022-11-21T17:43:47.227Z,8.59
2022-11-21T17:44:49.572Z,7.01
2022-11-21T17:45:54.627Z,9.94
2022-11-21T17:46:56.655Z,7.37
2022-11-21T17:47:58.642Z,8.91
2022-11-21T17:49:00.494Z,7.95
2022-11-21T17:50:06.390Z,7.99
2022-11-21T17:51:11.936Z,8.45
2022-11-21T17:52:13.950Z,8.34
2022-11-21T17:53:17.173Z,7.24
2022-11-21T17:54:19.208Z,7.42
2022-11-21T17:55:21.181Z,9.13
2022-11-21T17:56:25.753Z,8.25
2022-11-21T17:57:30.324Z,7.73
2022-11-21T17:58:33.655Z,8.16
2022-11-21T17:59:35.527Z,7.49
2022-11-21T18:00:37.493Z,7.23
2022-11-21T18:01:40.533Z,8.21
2022-11-21T18:02:42.919Z,7.88
2022-11-21T20:49:45.220Z,13.64
2022-11-21T20:54:08.317Z,8.83
2022-11-21T20:55:11.419Z,12.10
2022-11-21T20:56:13.602Z,9.87
2022-11-21T20:57:15.908Z,9.69
2022-11-21T20:58:18.863Z,10.15
2022-11-21T20:59:20.956Z,11.22
2022-11-21T21:00:22.925Z,8.29
2022-11-21T21:01:24.894Z,8.02
2022-11-21T21:02:27.006Z,8.38
2022-11-21T21:03:28.959Z,8.78
2022-11-21T21:04:30.924Z,7.95
2022-11-21T21:05:34.963Z,7.97
2022-11-21T21:06:37.146Z,9.61
2022-11-21T21:07:39.976Z,8.81
2022-11-21T21:08:42.809Z,6.26
2022-11-21T21:09:44.969Z,8.17
2022-11-21T21:11:05.221Z,7.34
2022-11-21T21:11:53.045Z,6.72
2022-11-21T21:12:56.564Z,6.49
2022-11-21T21:13:58.445Z,7.14
2022-11-21T21:15:01.099Z,6.69
2022-11-21T21:16:06.383Z,6.52
2022-11-21T21:17:08.296Z,7.68
2022-11-21T21:18:10.149Z,6.89
2022-11-21T21:19:12.057Z,7.75
2022-11-21T21:20:15.490Z,6.63
2022-11-21T21:21:20.000Z,8.61
2022-11-21T21:22:22.230Z,7.42
2022-11-21T21:23:24.248Z,7.91
2022-11-21T21:24:26.433Z,6.61
2022-11-21T21:25:28.302Z,6.84
2022-11-21T21:26:38.631Z,7.37
2022-11-21T21:27:38.023Z,8.06
2022-11-21T21:28:41.420Z,8.97
2022-11-21T21:29:43.294Z,8.83
2022-11-21T21:30:45.257Z,8.70
2022-11-21T21:31:51.690Z,7.26
2022-11-21T21:32:52.299Z,7.81
2022-11-21T21:33:54.672Z,7.72
2022-11-21T21:34:56.587Z,6.53
2022-11-21T21:36:04.649Z,6.42
2022-11-21T21:37:06.559Z,6.49
2022-11-21T21:38:09.247Z,7.23
2022-11-21T21:39:11.265Z,5.64
2022-11-21T21:40:16.920Z,6.61
2022-11-21T21:41:19.533Z,8.31
2022-11-21T21:42:21.419Z,6.73
2022-11-21T21:43:23.303Z,9.04
2022-11-21T21:44:31.487Z,8.11
2022-11-21T21:45:28.918Z,6.79
2022-11-21T21:46:30.904Z,7.09
2022-11-21T21:47:33.062Z,7.96
2022-11-21T21:48:35.010Z,8.43
2022-11-21T21:49:36.911Z,9.21
2022-11-21T21:50:38.922Z,7.67
2022-11-21T21:51:40.987Z,8.17
2022-11-21T21:52:44.863Z,7.97
2022-11-21T21:53:48.347Z,6.74
2022-11-21T21:54:50.352Z,6.59
2022-11-21T21:55:52.274Z,7.08
2022-11-21T21:56:54.271Z,6.13
2022-11-21T21:57:56.241Z,7.96
2022-11-21T21:58:58.500Z,8.18
2022-11-21T22:00:00.373Z,7.06
2022-11-21T22:01:07.237Z,5.53
2022-11-21T22:02:11.089Z,7.32
2022-11-21T22:03:13.095Z,7.83
2022-11-21T22:04:15.130Z,9.10
2022-11-21T22:05:17.011Z,8.45
2022-11-21T22:06:19.503Z,8.63
2022-11-21T22:07:21.443Z,6.71
2022-11-21T22:08:23.461Z,7.74
2022-11-21T22:09:26.033Z,8.30
2022-11-21T22:10:28.208Z,8.05
2022-11-21T22:11:33.497Z,7.55
2022-11-21T22:12:38.832Z,10.98
2022-11-21T22:13:41.615Z,6.87
2022-11-21T22:14:43.496Z,7.10
2022-11-21T22:15:45.468Z,8.98
2022-11-21T22:16:47.681Z,6.51
2022-11-21T22:17:49.581Z,6.77
2022-11-21T22:18:52.518Z,6.03
2022-11-21T22:19:54.469Z,7.10
2022-11-21T22:20:57.053Z,8.21
2022-11-21T22:22:00.706Z,7.06
2022-11-21T22:23:02.752Z,7.17
2022-11-21T22:24:27.271Z,5.51
2022-11-21T22:25:15.123Z,6.67
2022-11-21T22:26:17.651Z,5.65
2022-11-21T22:27:19.546Z,5.87
2022-11-21T22:28:21.444Z,6.74
2022-11-21T22:29:23.520Z,5.57
2022-11-21T22:30:25.514Z,4.96
2022-11-21T22:31:29.938Z,6.51
2022-11-21T22:32:31.826Z,5.47
2022-11-21T22:33:33.755Z,5.09
2022-11-21T22:34:35.633Z,5.22
2022-11-21T22:35:37.497Z,5.18
2022-11-21T22:36:39.794Z,5.34
2022-11-21T22:37:41.690Z,4.69
2022-11-21T22:38:44.808Z,5.51
2022-11-21T22:39:46.701Z,5.03
2022-11-21T22:40:48.663Z,3.60
2022-11-21T22:41:50.562Z,5.30
2022-11-21T22:42:52.517Z,3.81
2022-11-21T22:43:58.054Z,5.53
2022-11-21T22:44:59.969Z,4.68
2022-11-21T22:46:05.500Z,4.73
2022-11-21T22:47:07.414Z,4.81
2022-11-21T22:48:09.394Z,5.70
2022-11-21T22:49:11.270Z,6.15
2022-11-21T22:50:14.453Z,5.54
2022-11-21T22:51:25.405Z,4.37
2022-11-21T22:52:27.399Z,6.24
2022-11-21T22:53:29.987Z,4.67
2022-11-21T22:54:32.083Z,4.61
2022-11-21T22:55:34.094Z,4.93